sensor_id;sensor_type;location;lat;lon;timestamp;temperature;humidity
68051;DHT22;54839;51.364;7.246;2023-05-07T00:01:42;14.20;99.90
68051;DHT22;54839;51.364;7.246;2023-05-07T00:04:08;14.10;99.90
68051;DHT22;54839;51.364;7.246;2023-05-07T00:06:33;14.10;99.90
68051;DHT22;54839;51.364;7.246;2023-05-07T00:08:59;14.10;99.90
68051;DHT22;54839;51.364;7.246;2023-05-07T00:11:26;14.10;99.90
68051;DHT22;54839;51.364;7.246;2023-05-07T00:13:52;14.10;99.90
68051;DHT22;54839;51.364;7.246;2023-05-07T00:16:18;14.10;99.90
68051;DHT22;54839;51.364;7.246;2023-05-07T00:18:44;14.10;99.90
68051;DHT22;54839;51.364;7.246;2023-05-07T00:21:10;14.10;99.90
68051;DHT22;54839;51.364;7.246;2023-05-07T00:23:36;14.10;99.90
68051;DHT22;54839;51.364;7.246;2023-05-07T00:26:02;14.10;99.90
68051;DHT22;54839;51.364;7.246;2023-05-07T00:28:28;14.10;99.90
68051;DHT22;54839;51.364;7.246;2023-05-07T00:30:53;14.10;99.90
68051;DHT22;54839;51.364;7.246;2023-05-07T00:33:19;14.10;99.90
68051;DHT22;54839;51.364;7.246;2023-05-07T00:35:46;14.00;99.90
68051;DHT22;54839;51.364;7.246;2023-05-07T00:38:11;13.90;99.90
68051;DHT22;54839;51.364;7.246;2023-05-07T00:40:37;14.00;99.90
68051;DHT22;54839;51.364;7.246;2023-05-07T00:43:02;13.90;99.90
68051;DHT22;54839;51.364;7.246;2023-05-07T00:45:28;13.90;99.90
68051;DHT22;54839;51.364;7.246;2023-05-07T00:47:55;13.90;99.90
68051;DHT22;54839;51.364;7.246;2023-05-07T00:50:22;13.90;99.90
68051;DHT22;54839;51.364;7.246;2023-05-07T00:52:48;13.90;99.90
68051;DHT22;54839;51.364;7.246;2023-05-07T00:55:14;13.90;99.90
68051;DHT22;54839;51.364;7.246;2023-05-07T00:57:41;13.90;99.90
68051;DHT22;54839;51.364;7.246;2023-05-07T01:00:08;14.00;99.90
68051;DHT22;54839;51.364;7.246;2023-05-07T01:02:38;14.00;99.90
68051;DHT22;54839;51.364;7.246;2023-05-07T01:05:05;14.00;99.90
68051;DHT22;54839;51.364;7.246;2023-05-07T01:07:33;13.90;99.90
68051;DHT22;54839;51.364;7.246;2023-05-07T01:10:00;13.90;99.90
68051;DHT22;54839;51.364;7.246;2023-05-07T01:12:26;13.90;99.90
68051;DHT22;54839;51.364;7.246;2023-05-07T01:14:53;13.80;99.90
68051;DHT22;54839;51.364;7.246;2023-05-07T01:17:19;13.60;99.90
68051;DHT22;54839;51.364;7.246;2023-05-07T01:19:44;13.60;99.90
68051;DHT22;54839;51.364;7.246;2023-05-07T01:22:10;13.60;99.90
68051;DHT22;54839;51.364;7.246;2023-05-07T01:24:40;13.70;99.90
68051;DHT22;54839;51.364;7.246;2023-05-07T01:27:06;13.70;99.90
68051;DHT22;54839;51.364;7.246;2023-05-07T01:29:32;13.70;99.90
68051;DHT22;54839;51.364;7.246;2023-05-07T01:31:59;13.70;99.90
68051;DHT22;54839;51.364;7.246;2023-05-07T01:34:30;13.60;99.90
68051;DHT22;54839;51.364;7.246;2023-05-07T01:36:56;13.60;99.90
68051;DHT22;54839;51.364;7.246;2023-05-07T01:39:25;13.60;99.90
68051;DHT22;54839;51.364;7.246;2023-05-07T01:41:56;13.50;99.90
68051;DHT22;54839;51.364;7.246;2023-05-07T01:44:22;13.50;99.90
68051;DHT22;54839;51.364;7.246;2023-05-07T01:46:48;13.60;99.90
68051;DHT22;54839;51.364;7.246;2023-05-07T01:49:15;13.60;99.90
68051;DHT22;54839;51.364;7.246;2023-05-07T01:51:41;13.60;99.90
68051;DHT22;54839;51.364;7.246;2023-05-07T01:54:07;13.70;99.90
68051;DHT22;54839;51.364;7.246;2023-05-07T01:56:33;13.60;99.90
68051;DHT22;54839;51.364;7.246;2023-05-07T01:58:59;13.50;99.90
68051;DHT22;54839;51.364;7.246;2023-05-07T02:01:24;13.40;99.90
68051;DHT22;54839;51.364;7.246;2023-05-07T02:03:50;13.30;99.90
68051;DHT22;54839;51.364;7.246;2023-05-07T02:06:16;13.20;99.90
68051;DHT22;54839;51.364;7.246;2023-05-07T02:08:41;13.30;99.90
68051;DHT22;54839;51.364;7.246;2023-05-07T02:11:07;13.20;99.90
68051;DHT22;54839;51.364;7.246;2023-05-07T02:13:33;13.30;99.90
68051;DHT22;54839;51.364;7.246;2023-05-07T02:16:02;13.20;99.90
68051;DHT22;54839;51.364;7.246;2023-05-07T02:18:28;13.20;99.90
68051;DHT22;54839;51.364;7.246;2023-05-07T02:20:54;13.10;99.90
68051;DHT22;54839;51.364;7.246;2023-05-07T02:23:20;13.10;99.90
68051;DHT22;54839;51.364;7.246;2023-05-07T02:25:45;13.10;99.90
68051;DHT22;54839;51.364;7.246;2023-05-07T02:28:11;13.10;99.90
68051;DHT22;54839;51.364;7.246;2023-05-07T02:30:38;13.00;99.90
68051;DHT22;54839;51.364;7.246;2023-05-07T02:33:04;12.90;99.90
68051;DHT22;54839;51.364;7.246;2023-05-07T02:35:29;13.00;99.90
68051;DHT22;54839;51.364;7.246;2023-05-07T02:37:55;12.90;99.90
68051;DHT22;54839;51.364;7.246;2023-05-07T02:40:21;12.80;99.90
68051;DHT22;54839;51.364;7.246;2023-05-07T02:42:46;12.80;99.90
68051;DHT22;54839;51.364;7.246;2023-05-07T02:45:12;12.80;99.90
68051;DHT22;54839;51.364;7.246;2023-05-07T02:47:38;12.70;99.90
68051;DHT22;54839;51.364;7.246;2023-05-07T02:50:03;12.70;99.90
68051;DHT22;54839;51.364;7.246;2023-05-07T02:52:29;12.60;99.90
68051;DHT22;54839;51.364;7.246;2023-05-07T02:54:55;12.50;99.90
68051;DHT22;54839;51.364;7.246;2023-05-07T02:57:20;12.50;99.90
68051;DHT22;54839;51.364;7.246;2023-05-07T02:59:46;12.50;99.90
68051;DHT22;54839;51.364;7.246;2023-05-07T03:02:11;12.40;99.90
68051;DHT22;54839;51.364;7.246;2023-05-07T03:04:38;12.30;99.90
68051;DHT22;54839;51.364;7.246;2023-05-07T03:07:04;12.40;99.90
68051;DHT22;54839;51.364;7.246;2023-05-07T03:09:29;12.30;99.90
68051;DHT22;54839;51.364;7.246;2023-05-07T03:11:56;12.30;99.90
68051;DHT22;54839;51.364;7.246;2023-05-07T03:14:21;12.20;99.90
68051;DHT22;54839;51.364;7.246;2023-05-07T03:16:47;12.20;99.90
68051;DHT22;54839;51.364;7.246;2023-05-07T03:19:13;12.20;99.90
68051;DHT22;54839;51.364;7.246;2023-05-07T03:21:38;12.20;99.90
68051;DHT22;54839;51.364;7.246;2023-05-07T03:24:04;12.20;99.90
68051;DHT22;54839;51.364;7.246;2023-05-07T03:26:30;12.30;99.90
68051;DHT22;54839;51.364;7.246;2023-05-07T03:28:55;12.30;99.90
68051;DHT22;54839;51.364;7.246;2023-05-07T03:31:21;12.30;99.90
68051;DHT22;54839;51.364;7.246;2023-05-07T03:34:04;12.20;99.90
68051;DHT22;54839;51.364;7.246;2023-05-07T03:36:30;12.20;99.90
68051;DHT22;54839;51.364;7.246;2023-05-07T03:38:56;12.30;99.90
68051;DHT22;54839;51.364;7.246;2023-05-07T03:41:21;12.20;99.90
68051;DHT22;54839;51.364;7.246;2023-05-07T03:43:47;12.30;99.90
68051;DHT22;54839;51.364;7.246;2023-05-07T03:46:12;12.30;99.90
68051;DHT22;54839;51.364;7.246;2023-05-07T03:48:38;12.30;99.90
68051;DHT22;54839;51.364;7.246;2023-05-07T03:51:03;12.30;99.90
68051;DHT22;54839;51.364;7.246;2023-05-07T03:53:29;12.30;99.90
68051;DHT22;54839;51.364;7.246;2023-05-07T03:55:54;12.20;99.90
68051;DHT22;54839;51.364;7.246;2023-05-07T03:58:20;12.20;99.90
68051;DHT22;54839;51.364;7.246;2023-05-07T04:00:46;12.20;99.90
68051;DHT22;54839;51.364;7.246;2023-05-07T04:03:11;12.10;99.90
68051;DHT22;54839;51.364;7.246;2023-05-07T04:05:37;12.20;99.90
68051;DHT22;54839;51.364;7.246;2023-05-07T04:08:02;12.10;99.90
68051;DHT22;54839;51.364;7.246;2023-05-07T04:10:29;12.10;99.90
68051;DHT22;54839;51.364;7.246;2023-05-07T04:12:55;12.10;99.90
68051;DHT22;54839;51.364;7.246;2023-05-07T04:15:20;12.20;99.90
68051;DHT22;54839;51.364;7.246;2023-05-07T04:17:46;12.20;99.90
68051;DHT22;54839;51.364;7.246;2023-05-07T04:20:15;12.20;99.90
68051;DHT22;54839;51.364;7.246;2023-05-07T04:22:41;12.10;99.90
68051;DHT22;54839;51.364;7.246;2023-05-07T04:25:08;12.20;99.90
68051;DHT22;54839;51.364;7.246;2023-05-07T04:27:37;12.30;99.90
68051;DHT22;54839;51.364;7.246;2023-05-07T04:30:03;12.30;99.90
68051;DHT22;54839;51.364;7.246;2023-05-07T04:32:29;12.30;99.90
68051;DHT22;54839;51.364;7.246;2023-05-07T04:34:56;12.30;99.90
68051;DHT22;54839;51.364;7.246;2023-05-07T04:37:22;12.30;99.90
68051;DHT22;54839;51.364;7.246;2023-05-07T04:39:48;12.30;99.90
68051;DHT22;54839;51.364;7.246;2023-05-07T04:42:17;12.60;99.90
68051;DHT22;54839;51.364;7.246;2023-05-07T04:44:43;12.70;99.90
68051;DHT22;54839;51.364;7.246;2023-05-07T04:47:09;12.80;99.90
68051;DHT22;54839;51.364;7.246;2023-05-07T04:49:35;12.90;99.90
68051;DHT22;54839;51.364;7.246;2023-05-07T04:52:00;13.00;99.90
68051;DHT22;54839;51.364;7.246;2023-05-07T04:54:26;13.10;99.90
68051;DHT22;54839;51.364;7.246;2023-05-07T04:56:52;13.20;99.90
68051;DHT22;54839;51.364;7.246;2023-05-07T04:59:17;13.20;99.90
68051;DHT22;54839;51.364;7.246;2023-05-07T05:01:43;13.30;99.90
68051;DHT22;54839;51.364;7.246;2023-05-07T05:04:09;13.30;99.90
68051;DHT22;54839;51.364;7.246;2023-05-07T05:06:35;13.30;99.90
68051;DHT22;54839;51.364;7.246;2023-05-07T05:09:01;13.30;99.90
68051;DHT22;54839;51.364;7.246;2023-05-07T05:11:26;13.40;99.90
68051;DHT22;54839;51.364;7.246;2023-05-07T05:13:52;13.60;99.90
68051;DHT22;54839;51.364;7.246;2023-05-07T05:16:17;13.70;99.90
68051;DHT22;54839;51.364;7.246;2023-05-07T05:18:43;13.80;99.90
68051;DHT22;54839;51.364;7.246;2023-05-07T05:21:08;13.90;99.90
68051;DHT22;54839;51.364;7.246;2023-05-07T05:23:34;14.10;99.90
68051;DHT22;54839;51.364;7.246;2023-05-07T05:25:59;14.00;99.90
68051;DHT22;54839;51.364;7.246;2023-05-07T05:28:25;14.10;99.90
68051;DHT22;54839;51.364;7.246;2023-05-07T05:30:51;14.10;99.90
68051;DHT22;54839;51.364;7.246;2023-05-07T05:33:16;14.20;99.90
68051;DHT22;54839;51.364;7.246;2023-05-07T05:35:42;14.20;99.90
68051;DHT22;54839;51.364;7.246;2023-05-07T05:38:08;14.30;99.90
68051;DHT22;54839;51.364;7.246;2023-05-07T05:40:33;14.30;99.90
68051;DHT22;54839;51.364;7.246;2023-05-07T05:42:59;14.30;99.90
68051;DHT22;54839;51.364;7.246;2023-05-07T05:45:25;14.40;99.90
68051;DHT22;54839;51.364;7.246;2023-05-07T05:47:51;14.50;99.90
68051;DHT22;54839;51.364;7.246;2023-05-07T05:50:17;14.50;99.90
68051;DHT22;54839;51.364;7.246;2023-05-07T05:52:42;14.50;99.90
68051;DHT22;54839;51.364;7.246;2023-05-07T05:55:08;14.50;99.90
68051;DHT22;54839;51.364;7.246;2023-05-07T05:57:34;14.70;99.90
68051;DHT22;54839;51.364;7.246;2023-05-07T06:00:01;14.70;99.90
68051;DHT22;54839;51.364;7.246;2023-05-07T06:02:27;14.80;99.90
68051;DHT22;54839;51.364;7.246;2023-05-07T06:04:52;15.00;99.90
68051;DHT22;54839;51.364;7.246;2023-05-07T06:07:18;15.10;99.90
68051;DHT22;54839;51.364;7.246;2023-05-07T06:09:43;15.20;99.90
68051;DHT22;54839;51.364;7.246;2023-05-07T06:12:09;15.20;99.90
68051;DHT22;54839;51.364;7.246;2023-05-07T06:14:35;15.10;99.90
68051;DHT22;54839;51.364;7.246;2023-05-07T06:17:00;15.20;99.90
68051;DHT22;54839;51.364;7.246;2023-05-07T06:19:26;15.40;99.90
68051;DHT22;54839;51.364;7.246;2023-05-07T06:21:53;15.50;99.90
68051;DHT22;54839;51.364;7.246;2023-05-07T06:24:19;15.60;99.90
68051;DHT22;54839;51.364;7.246;2023-05-07T06:26:44;15.70;99.90
68051;DHT22;54839;51.364;7.246;2023-05-07T06:29:10;15.80;99.90
68051;DHT22;54839;51.364;7.246;2023-05-07T06:31:35;15.90;99.90
68051;DHT22;54839;51.364;7.246;2023-05-07T06:34:01;16.00;99.90
68051;DHT22;54839;51.364;7.246;2023-05-07T06:36:28;16.20;99.90
68051;DHT22;54839;51.364;7.246;2023-05-07T06:38:53;16.40;99.90
68051;DHT22;54839;51.364;7.246;2023-05-07T06:41:19;16.40;99.90
68051;DHT22;54839;51.364;7.246;2023-05-07T06:43:45;16.30;99.90
68051;DHT22;54839;51.364;7.246;2023-05-07T06:46:11;16.30;99.90
68051;DHT22;54839;51.364;7.246;2023-05-07T06:48:36;16.30;99.90
68051;DHT22;54839;51.364;7.246;2023-05-07T06:51:02;16.40;99.90
68051;DHT22;54839;51.364;7.246;2023-05-07T06:53:28;16.50;99.90
68051;DHT22;54839;51.364;7.246;2023-05-07T06:55:54;16.70;99.90
68051;DHT22;54839;51.364;7.246;2023-05-07T06:58:20;16.60;99.90
68051;DHT22;54839;51.364;7.246;2023-05-07T07:00:45;16.70;99.90
68051;DHT22;54839;51.364;7.246;2023-05-07T07:03:11;16.80;99.90
68051;DHT22;54839;51.364;7.246;2023-05-07T07:05:36;17.00;99.90
68051;DHT22;54839;51.364;7.246;2023-05-07T07:08:02;17.00;99.90
68051;DHT22;54839;51.364;7.246;2023-05-07T07:10:28;17.10;99.90
68051;DHT22;54839;51.364;7.246;2023-05-07T07:12:53;17.20;99.90
68051;DHT22;54839;51.364;7.246;2023-05-07T07:15:19;17.20;99.90
68051;DHT22;54839;51.364;7.246;2023-05-07T07:17:46;17.40;99.90
68051;DHT22;54839;51.364;7.246;2023-05-07T07:20:11;17.30;99.90
68051;DHT22;54839;51.364;7.246;2023-05-07T07:22:37;17.20;99.90
68051;DHT22;54839;51.364;7.246;2023-05-07T07:25:03;17.20;99.90
68051;DHT22;54839;51.364;7.246;2023-05-07T07:27:29;17.10;99.90
68051;DHT22;54839;51.364;7.246;2023-05-07T07:29:54;17.20;99.90
68051;DHT22;54839;51.364;7.246;2023-05-07T07:32:20;17.30;99.90
68051;DHT22;54839;51.364;7.246;2023-05-07T07:34:46;17.40;99.90
68051;DHT22;54839;51.364;7.246;2023-05-07T07:37:11;17.60;99.90
68051;DHT22;54839;51.364;7.246;2023-05-07T07:39:37;17.80;99.90
68051;DHT22;54839;51.364;7.246;2023-05-07T07:42:06;18.00;99.90
68051;DHT22;54839;51.364;7.246;2023-05-07T07:44:32;18.10;99.90
68051;DHT22;54839;51.364;7.246;2023-05-07T07:46:57;18.10;99.90
68051;DHT22;54839;51.364;7.246;2023-05-07T07:49:23;18.20;99.90
68051;DHT22;54839;51.364;7.246;2023-05-07T07:51:48;18.30;99.90
68051;DHT22;54839;51.364;7.246;2023-05-07T07:54:14;18.20;99.90
68051;DHT22;54839;51.364;7.246;2023-05-07T07:56:39;18.20;99.90
68051;DHT22;54839;51.364;7.246;2023-05-07T07:59:05;18.40;99.90
68051;DHT22;54839;51.364;7.246;2023-05-07T08:01:31;18.50;99.90
68051;DHT22;54839;51.364;7.246;2023-05-07T08:03:56;18.70;99.90
68051;DHT22;54839;51.364;7.246;2023-05-07T08:06:25;18.50;99.90
68051;DHT22;54839;51.364;7.246;2023-05-07T08:08:53;18.80;99.90
68051;DHT22;54839;51.364;7.246;2023-05-07T08:11:19;18.80;99.90
68051;DHT22;54839;51.364;7.246;2023-05-07T08:13:45;18.50;99.90
68051;DHT22;54839;51.364;7.246;2023-05-07T08:16:11;18.60;99.90
68051;DHT22;54839;51.364;7.246;2023-05-07T08:18:37;18.80;99.90
68051;DHT22;54839;51.364;7.246;2023-05-07T08:21:03;18.90;99.90
68051;DHT22;54839;51.364;7.246;2023-05-07T08:23:28;19.00;99.90
68051;DHT22;54839;51.364;7.246;2023-05-07T08:25:54;19.20;99.90
68051;DHT22;54839;51.364;7.246;2023-05-07T08:28:19;19.40;99.90
68051;DHT22;54839;51.364;7.246;2023-05-07T08:30:46;19.30;99.90
68051;DHT22;54839;51.364;7.246;2023-05-07T08:33:12;19.50;99.90
68051;DHT22;54839;51.364;7.246;2023-05-07T08:35:38;19.70;99.90
68051;DHT22;54839;51.364;7.246;2023-05-07T08:38:03;19.70;99.90
68051;DHT22;54839;51.364;7.246;2023-05-07T08:40:33;19.70;99.90
68051;DHT22;54839;51.364;7.246;2023-05-07T08:43:02;19.70;99.90
68051;DHT22;54839;51.364;7.246;2023-05-07T08:45:29;19.80;99.90
68051;DHT22;54839;51.364;7.246;2023-05-07T08:47:58;20.00;99.90
68051;DHT22;54839;51.364;7.246;2023-05-07T08:50:24;19.90;99.90
68051;DHT22;54839;51.364;7.246;2023-05-07T08:52:50;20.00;99.90
68051;DHT22;54839;51.364;7.246;2023-05-07T08:55:16;20.30;99.90
68051;DHT22;54839;51.364;7.246;2023-05-07T08:57:42;20.50;99.90
68051;DHT22;54839;51.364;7.246;2023-05-07T09:00:08;20.70;99.90
68051;DHT22;54839;51.364;7.246;2023-05-07T09:02:35;20.70;99.90
68051;DHT22;54839;51.364;7.246;2023-05-07T09:05:01;21.10;99.90
68051;DHT22;54839;51.364;7.246;2023-05-07T09:07:27;21.20;99.90
68051;DHT22;54839;51.364;7.246;2023-05-07T09:09:53;21.30;99.90
68051;DHT22;54839;51.364;7.246;2023-05-07T09:12:21;21.30;99.90
68051;DHT22;54839;51.364;7.246;2023-05-07T09:14:46;21.10;99.90
68051;DHT22;54839;51.364;7.246;2023-05-07T09:17:12;21.00;99.90
68051;DHT22;54839;51.364;7.246;2023-05-07T09:19:38;21.10;99.90
68051;DHT22;54839;51.364;7.246;2023-05-07T09:22:05;21.30;99.90
68051;DHT22;54839;51.364;7.246;2023-05-07T09:24:32;21.20;99.90
68051;DHT22;54839;51.364;7.246;2023-05-07T09:27:06;21.10;99.90
68051;DHT22;54839;51.364;7.246;2023-05-07T09:29:32;20.90;99.90
68051;DHT22;54839;51.364;7.246;2023-05-07T09:32:05;21.00;99.90
68051;DHT22;54839;51.364;7.246;2023-05-07T09:34:31;20.80;99.90
68051;DHT22;54839;51.364;7.246;2023-05-07T09:37:04;20.80;99.90
68051;DHT22;54839;51.364;7.246;2023-05-07T09:39:43;20.90;99.90
68051;DHT22;54839;51.364;7.246;2023-05-07T09:42:09;21.00;99.90
68051;DHT22;54839;51.364;7.246;2023-05-07T09:44:37;21.20;99.90
68051;DHT22;54839;51.364;7.246;2023-05-07T09:47:05;21.50;99.90
68051;DHT22;54839;51.364;7.246;2023-05-07T09:49:34;22.00;99.90
68051;DHT22;54839;51.364;7.246;2023-05-07T09:52:01;22.40;99.90
68051;DHT22;54839;51.364;7.246;2023-05-07T09:54:28;22.30;99.90
68051;DHT22;54839;51.364;7.246;2023-05-07T09:56:56;22.30;99.90
68051;DHT22;54839;51.364;7.246;2023-05-07T09:59:24;22.60;99.90
68051;DHT22;54839;51.364;7.246;2023-05-07T10:01:51;23.20;99.90
68051;DHT22;54839;51.364;7.246;2023-05-07T10:04:18;23.40;99.90
68051;DHT22;54839;51.364;7.246;2023-05-07T10:06:45;23.70;99.90
68051;DHT22;54839;51.364;7.246;2023-05-07T10:09:12;23.70;99.90
68051;DHT22;54839;51.364;7.246;2023-05-07T10:11:38;23.40;99.90
68051;DHT22;54839;51.364;7.246;2023-05-07T10:14:05;23.30;99.90
68051;DHT22;54839;51.364;7.246;2023-05-07T10:16:35;23.20;99.90
68051;DHT22;54839;51.364;7.246;2023-05-07T10:19:05;23.00;99.90
68051;DHT22;54839;51.364;7.246;2023-05-07T10:21:31;22.80;99.90
68051;DHT22;54839;51.364;7.246;2023-05-07T10:24:05;22.90;99.90
68051;DHT22;54839;51.364;7.246;2023-05-07T10:26:32;23.20;99.90
68051;DHT22;54839;51.364;7.246;2023-05-07T10:29:07;23.50;99.90
68051;DHT22;54839;51.364;7.246;2023-05-07T10:32:04;23.40;99.90
68051;DHT22;54839;51.364;7.246;2023-05-07T10:34:40;23.00;99.90
68051;DHT22;54839;51.364;7.246;2023-05-07T10:37:07;22.80;99.90
68051;DHT22;54839;51.364;7.246;2023-05-07T10:39:34;22.90;99.90
68051;DHT22;54839;51.364;7.246;2023-05-07T10:42:13;23.00;99.90
68051;DHT22;54839;51.364;7.246;2023-05-07T10:44:39;22.90;99.90
68051;DHT22;54839;51.364;7.246;2023-05-07T10:49:32;22.90;99.90
68051;DHT22;54839;51.364;7.246;2023-05-07T10:52:18;23.00;99.90
68051;DHT22;54839;51.364;7.246;2023-05-07T10:54:45;22.80;99.90
68051;DHT22;54839;51.364;7.246;2023-05-07T10:59:58;22.80;99.90
68051;DHT22;54839;51.364;7.246;2023-05-07T11:02:23;22.50;99.90
68051;DHT22;54839;51.364;7.246;2023-05-07T11:05:22;22.40;99.90
68051;DHT22;54839;51.364;7.246;2023-05-07T11:07:58;22.50;99.90
68051;DHT22;54839;51.364;7.246;2023-05-07T11:10:54;22.50;99.90
68051;DHT22;54839;51.364;7.246;2023-05-07T11:13:42;22.30;99.90
68051;DHT22;54839;51.364;7.246;2023-05-07T11:18:48;22.20;99.90
68051;DHT22;54839;51.364;7.246;2023-05-07T11:23:58;22.00;99.90
68051;DHT22;54839;51.364;7.246;2023-05-07T11:26:24;21.80;99.90
68051;DHT22;54839;51.364;7.246;2023-05-07T11:28:51;21.60;99.90
68051;DHT22;54839;51.364;7.246;2023-05-07T11:31:21;21.50;99.90
68051;DHT22;54839;51.364;7.246;2023-05-07T11:33:48;21.50;99.90
68051;DHT22;54839;51.364;7.246;2023-05-07T11:36:15;21.60;99.90
68051;DHT22;54839;51.364;7.246;2023-05-07T11:38:41;21.70;99.90
68051;DHT22;54839;51.364;7.246;2023-05-07T11:41:07;21.80;99.90
68051;DHT22;54839;51.364;7.246;2023-05-07T11:43:33;22.00;99.90
68051;DHT22;54839;51.364;7.246;2023-05-07T11:46:09;22.30;99.90
68051;DHT22;54839;51.364;7.246;2023-05-07T11:48:36;22.40;99.90
68051;DHT22;54839;51.364;7.246;2023-05-07T11:51:03;22.40;99.90
68051;DHT22;54839;51.364;7.246;2023-05-07T11:53:40;22.50;99.90
68051;DHT22;54839;51.364;7.246;2023-05-07T11:56:07;22.50;99.90
68051;DHT22;54839;51.364;7.246;2023-05-07T11:58:33;22.30;99.90
68051;DHT22;54839;51.364;7.246;2023-05-07T12:00:58;22.00;99.90
68051;DHT22;54839;51.364;7.246;2023-05-07T12:03:24;21.60;99.90
68051;DHT22;54839;51.364;7.246;2023-05-07T12:05:49;21.50;99.90
68051;DHT22;54839;51.364;7.246;2023-05-07T12:08:16;21.50;99.90
68051;DHT22;54839;51.364;7.246;2023-05-07T12:10:42;21.70;99.90
68051;DHT22;54839;51.364;7.246;2023-05-07T12:13:18;21.60;99.90
68051;DHT22;54839;51.364;7.246;2023-05-07T12:15:44;21.80;99.90
68051;DHT22;54839;51.364;7.246;2023-05-07T12:18:13;21.90;99.90
68051;DHT22;54839;51.364;7.246;2023-05-07T12:20:39;22.30;99.90
68051;DHT22;54839;51.364;7.246;2023-05-07T12:23:05;22.50;99.90
68051;DHT22;54839;51.364;7.246;2023-05-07T12:25:40;22.40;99.90
68051;DHT22;54839;51.364;7.246;2023-05-07T12:28:13;22.40;99.90
68051;DHT22;54839;51.364;7.246;2023-05-07T12:30:42;22.30;99.90
68051;DHT22;54839;51.364;7.246;2023-05-07T12:33:07;22.40;99.90
68051;DHT22;54839;51.364;7.246;2023-05-07T12:35:38;22.50;99.90
68051;DHT22;54839;51.364;7.246;2023-05-07T12:38:17;22.20;99.90
68051;DHT22;54839;51.364;7.246;2023-05-07T12:40:49;22.20;99.90
68051;DHT22;54839;51.364;7.246;2023-05-07T12:43:18;22.00;99.90
68051;DHT22;54839;51.364;7.246;2023-05-07T12:45:47;22.00;99.90
68051;DHT22;54839;51.364;7.246;2023-05-07T12:48:13;21.80;99.90
68051;DHT22;54839;51.364;7.246;2023-05-07T12:50:39;21.70;99.90
68051;DHT22;54839;51.364;7.246;2023-05-07T12:53:06;21.40;99.90
68051;DHT22;54839;51.364;7.246;2023-05-07T12:55:47;21.40;99.90
68051;DHT22;54839;51.364;7.246;2023-05-07T12:58:32;21.40;99.90
68051;DHT22;54839;51.364;7.246;2023-05-07T13:00:59;21.30;99.90
68051;DHT22;54839;51.364;7.246;2023-05-07T13:03:33;21.20;99.90
68051;DHT22;54839;51.364;7.246;2023-05-07T13:06:03;21.10;99.90
68051;DHT22;54839;51.364;7.246;2023-05-07T13:08:32;20.90;99.90
68051;DHT22;54839;51.364;7.246;2023-05-07T13:11:02;21.00;99.90
68051;DHT22;54839;51.364;7.246;2023-05-07T13:13:30;20.90;99.90
68051;DHT22;54839;51.364;7.246;2023-05-07T13:15:56;20.90;99.90
68051;DHT22;54839;51.364;7.246;2023-05-07T13:18:21;21.00;99.90
68051;DHT22;54839;51.364;7.246;2023-05-07T13:20:47;20.90;99.90
68051;DHT22;54839;51.364;7.246;2023-05-07T13:23:13;20.90;99.90
68051;DHT22;54839;51.364;7.246;2023-05-07T13:25:38;20.60;99.90
68051;DHT22;54839;51.364;7.246;2023-05-07T13:28:04;20.10;99.90
68051;DHT22;54839;51.364;7.246;2023-05-07T13:30:30;20.00;99.90
68051;DHT22;54839;51.364;7.246;2023-05-07T13:32:56;20.20;99.90
68051;DHT22;54839;51.364;7.246;2023-05-07T13:35:21;20.20;99.90
68051;DHT22;54839;51.364;7.246;2023-05-07T13:37:47;20.10;99.90
68051;DHT22;54839;51.364;7.246;2023-05-07T13:40:17;20.20;99.90
68051;DHT22;54839;51.364;7.246;2023-05-07T13:42:44;19.90;99.90
68051;DHT22;54839;51.364;7.246;2023-05-07T13:45:10;20.00;99.90
68051;DHT22;54839;51.364;7.246;2023-05-07T13:47:36;19.70;99.90
68051;DHT22;54839;51.364;7.246;2023-05-07T13:50:01;19.60;99.90
68051;DHT22;54839;51.364;7.246;2023-05-07T13:52:27;19.50;99.90
68051;DHT22;54839;51.364;7.246;2023-05-07T13:54:52;19.50;99.90
68051;DHT22;54839;51.364;7.246;2023-05-07T13:57:18;19.60;99.90
68051;DHT22;54839;51.364;7.246;2023-05-07T13:59:44;19.70;99.90
68051;DHT22;54839;51.364;7.246;2023-05-07T14:02:09;19.60;99.90
68051;DHT22;54839;51.364;7.246;2023-05-07T14:04:37;19.60;99.90
68051;DHT22;54839;51.364;7.246;2023-05-07T14:07:03;19.70;99.90
68051;DHT22;54839;51.364;7.246;2023-05-07T14:09:28;19.70;99.90
68051;DHT22;54839;51.364;7.246;2023-05-07T14:11:54;19.60;99.90
68051;DHT22;54839;51.364;7.246;2023-05-07T14:14:20;19.60;99.90
68051;DHT22;54839;51.364;7.246;2023-05-07T14:16:45;19.60;99.90
68051;DHT22;54839;51.364;7.246;2023-05-07T14:19:12;19.40;99.90
68051;DHT22;54839;51.364;7.246;2023-05-07T14:21:37;19.50;99.90
68051;DHT22;54839;51.364;7.246;2023-05-07T14:24:05;19.40;99.90
68051;DHT22;54839;51.364;7.246;2023-05-07T14:26:31;19.30;99.90
68051;DHT22;54839;51.364;7.246;2023-05-07T14:28:56;19.20;99.90
68051;DHT22;54839;51.364;7.246;2023-05-07T14:31:24;19.10;99.90
68051;DHT22;54839;51.364;7.246;2023-05-07T14:33:50;19.00;99.90
68051;DHT22;54839;51.364;7.246;2023-05-07T14:36:16;19.10;99.90
68051;DHT22;54839;51.364;7.246;2023-05-07T14:38:42;19.10;99.90
68051;DHT22;54839;51.364;7.246;2023-05-07T14:41:08;18.90;99.90
68051;DHT22;54839;51.364;7.246;2023-05-07T14:43:33;18.90;99.90
68051;DHT22;54839;51.364;7.246;2023-05-07T14:45:59;18.80;99.90
68051;DHT22;54839;51.364;7.246;2023-05-07T14:48:24;18.60;99.90
68051;DHT22;54839;51.364;7.246;2023-05-07T14:50:50;18.90;99.90
68051;DHT22;54839;51.364;7.246;2023-05-07T14:53:16;18.90;99.90
68051;DHT22;54839;51.364;7.246;2023-05-07T14:55:41;18.90;99.90
68051;DHT22;54839;51.364;7.246;2023-05-07T14:58:07;18.90;99.90
68051;DHT22;54839;51.364;7.246;2023-05-07T15:00:33;18.80;99.90
68051;DHT22;54839;51.364;7.246;2023-05-07T15:03:08;18.80;99.90
68051;DHT22;54839;51.364;7.246;2023-05-07T15:05:36;18.80;99.90
68051;DHT22;54839;51.364;7.246;2023-05-07T15:08:02;18.60;99.90
68051;DHT22;54839;51.364;7.246;2023-05-07T15:10:28;18.50;99.90
68051;DHT22;54839;51.364;7.246;2023-05-07T15:12:53;18.40;99.90
68051;DHT22;54839;51.364;7.246;2023-05-07T15:15:19;18.30;99.90
68051;DHT22;54839;51.364;7.246;2023-05-07T15:17:45;18.40;99.90
68051;DHT22;54839;51.364;7.246;2023-05-07T15:20:11;18.30;99.90
68051;DHT22;54839;51.364;7.246;2023-05-07T15:22:36;18.20;99.90
68051;DHT22;54839;51.364;7.246;2023-05-07T15:25:03;18.30;99.90
68051;DHT22;54839;51.364;7.246;2023-05-07T15:27:29;18.30;99.90
68051;DHT22;54839;51.364;7.246;2023-05-07T15:29:56;18.50;99.90
68051;DHT22;54839;51.364;7.246;2023-05-07T15:32:22;18.40;99.90
68051;DHT22;54839;51.364;7.246;2023-05-07T15:34:47;18.50;99.90
68051;DHT22;54839;51.364;7.246;2023-05-07T15:37:13;18.20;99.90
68051;DHT22;54839;51.364;7.246;2023-05-07T15:39:38;18.20;99.90